Cedar City, Utah Weather observations

Data are for observation ending at time listed.
 Day   Time    Ave.   Ave.  Ave.  Vector   Max.   Stn.    Total    Solar   Ave.  
  of    of     Air    Rel.  Wind   Wind    Wind   Baro.  Precip.   Rad.    Soil  
Year   Day     Temp.  Hum.  Speed  Dir.    Gust   Pres.                    Temp. 
2015   (MST)    F      %     mph   deg.    mph     mb.     in.     W/m2     F   
------------------------------------------------------------------------------
 208   11:30   79.5    14    7.2   218     13.0   824.2    0.00     937    77.8
 208   11:40   80.3    14    6.7   213     16.6   824.1    0.00     949    77.9
 208   11:50   80.2    14    6.0   210     15.8   823.9    0.00     957    77.9
 208   12:00   80.3    13    7.3   213     13.7   823.9    0.00     964    78.0
 208   12:10   80.5    13    6.5   213     14.8   823.8    0.00     970    78.1
 208   12:20   81.2    13    5.2   229     12.1   824.0    0.00     974    78.0
 208   12:30   81.8    12    6.5   223     12.5   823.6    0.00     978    78.2
 208   12:40   81.8    12    5.9   211     14.6   823.8    0.00     977    78.2
 208   12:50   82.0    13    5.5   228     19.8   823.8    0.00     976    78.2
 208   13:00   82.1    12    6.5   212     14.6   823.8    0.00     973    78.3
 208   13:10   82.5    12    4.8   223     14.5   824.0    0.00     971    78.4
 208   13:20   83.1    12    5.1   208     11.2   823.9    0.00     965    78.4
 208   13:30   83.2    12    5.1   225     11.6   823.6    0.00     960    78.4
 208   13:40   82.9    12    6.3   230     13.2   823.6    0.00     953    78.5
 208   13:50   83.0    12    6.7   210     14.0   823.4    0.00     944    78.6
 208   14:00   83.4    12    4.3   190      9.8   823.4    0.00     931    78.6
 208   14:10   83.2    12    5.8   216     16.8   823.5    0.00     920    78.6
 208   14:20   83.3    12    4.8   230     14.0   823.5    0.00     906    78.7
 208   14:30   83.6    12    6.5   216     14.1   823.5    0.00     888    78.8
 208   14:40   83.1    12    5.8   244     13.0   823.5    0.00     643    78.8
 208   14:50   83.3    12    6.9   222     13.4   823.5    0.00     827    78.9
 208   15:00   84.4    12    5.0   208     13.1   823.3    0.00     764    78.9
 208   15:10   85.0    12    3.9   216     10.7   823.3    0.00     813    79.0
 208   15:20   84.5    11    5.8   228     17.3   823.3    0.00     778    79.1
 208   15:30   84.6    11    5.7   224     13.3   823.4    0.00     699    79.2
 208   15:40   85.0    11    4.8   223     11.3   823.3    0.00     745    79.2
 208   15:50   85.3    11    5.5   215     14.0   823.3    0.00     718    79.3
 208   16:00   85.0    11    5.3   214     13.6   823.2    0.00     689    79.4
 208   16:10   85.1    11    5.1   197     12.7   823.3    0.00     661    79.5
 208   16:20   85.4    11    4.9   201     11.2   823.0    0.00     633    79.6
 208   16:30   85.4    10    4.8   199     12.8   823.2    0.00     605    79.7
 208   16:40   85.4    11    5.2   229     10.5   823.0    0.00     573    79.8
 208   16:50   85.2    10    6.1   223     14.7   823.1    0.00     542    79.9
 208   17:00   85.2    10    4.7   227     10.2   823.1    0.00     512    80.0
 208   17:10   85.5    10    5.7   210     13.3   823.1    0.00     478    80.1
 208   17:20   84.8    10    6.5   218     13.2   823.0    0.00     446    80.2
 208   17:30   85.0    10    5.7   220     16.3   823.0    0.00     415    80.3
 208   17:40   84.5    10    5.1   224     13.6   823.0    0.00     380    80.4
 208   17:50   85.1    10    4.0   231      8.2   823.0    0.00     346    80.5
 208   18:00   84.0    10    5.2   249     11.7   823.0    0.00     314    80.6
 208   18:10   84.4    10    4.6   224      8.7   823.1    0.00     279    80.7
 208   18:20   84.4    10    4.4   230     13.1   823.1    0.00     246    80.8
 208   18:30   83.5    10    4.8   250     14.8   823.2    0.00     214    80.9
 208   18:40   83.5    10    3.1   251      7.7   823.3    0.00     180    81.0
 208   18:50   83.1    10    4.4   226     10.3   823.4    0.00     147    81.1
 208   19:00   82.7    10    4.5   221      9.1   823.4    0.00     118    81.1
 208   19:10   82.5    11    3.1   230      8.8   823.5    0.00      85    81.1
 208   19:20   81.8    11    3.1   225      6.0   823.5    0.00      50    81.1
 208   19:30   80.5    11    4.0   227      8.7   823.6    0.00      26    81.1
 208   19:40   79.3    11    3.6   223      6.6   823.6    0.00      13    81.1
 208   19:50   78.0    11    3.8   229      8.6   823.6    0.00       4    81.1
 208   20:00   77.0    12    2.8   223      5.6   823.7    0.00       2    81.1
 208   20:10   76.1    12    3.0   219      8.0   823.8    0.00       0    81.1
 208   20:20   75.5    12    1.7   184      3.9   823.8    0.00       0    81.0
 208   20:30   74.5    13    0.8   127      3.4   823.9    0.00       0    81.0
 208   20:40   74.1    13    1.1    90      3.9   824.0    0.00       0    80.9
 208   20:50   74.0    13    5.2   103      9.3   824.0    0.00       0    80.9
 208   21:00   73.6    14    5.1   101      8.5   824.2    0.00       0    80.9
 208   21:10   73.0    14    5.6    96      8.4   824.2    0.00       0    80.8
 208   21:20   72.9    14    2.8   127      7.5   824.4    0.00       0    80.8
 208   21:30   72.3    14    4.9    99      8.6   824.4    0.00       0    80.7
 208   21:40   71.7    15    5.2   100      9.0   824.5    0.00       0    80.6
 208   21:50   71.0    15    5.3    93      8.7   824.5    0.00       0    80.5
 208   22:00   70.1    16    4.2    20     11.8   825.1    0.00       0    80.5
 208   22:10   70.2    15    3.3    86      6.0   825.2    0.00       0    80.4
 208   22:20   69.5    16    1.3   302      4.1   825.4    0.00       0    80.3
 208   22:30   69.4    18    2.0   194      3.4   825.4    0.00       0    80.2
 208   22:40   68.4    19    1.1   220      2.0   825.5    0.00       0    80.1
 208   22:50   67.8    19    2.2   121      4.2   825.5    0.00       0    80.0
 208   23:00   67.6    19    1.5   110      4.3   825.5    0.00       0    80.0
 208   23:10   66.7    19    2.8    87      6.2   825.6    0.00       0    79.9
 208   23:20   66.2    20    1.6   141      3.6   825.8    0.00       0    79.8
 208   23:30   64.5    24    1.2   202      2.6   826.0    0.00       0    79.7
 208   23:40   63.9    26    1.4   195      2.6   826.2    0.00       0    79.6
 208   23:50   63.9    28    1.2   144      2.3   826.3    0.00       0    79.5
 209    0:00   63.7    29    1.5    61      2.3   826.4    0.00       0    79.4
 209    0:10   63.2    30    0.6    93      1.5   826.5    0.00       0    79.4
 209    0:20   63.8    26    2.2    96      4.3   826.6    0.00       0    79.3
 209    0:30   64.3    24    2.4    91      4.2   826.7    0.00       0    79.2
 209    0:40   63.6    25    0.5   130      2.5   826.8    0.00       0    79.1
 209    0:50   63.2    25    1.9   107      5.3   827.0    0.00       0    79.0
 209    1:00   63.4    23    3.8   112      6.4   827.0    0.00       0    78.9
 209    1:10   62.8    24    1.9    88      3.5   827.0    0.00       0    78.9
 209    1:20   62.1    24    2.7   123      6.0   827.0    0.00       0    78.8
 209    1:30   61.5    25    3.1   109      5.8   827.1    0.00       0    78.7
 209    1:40   61.1    26    1.6   138      5.1   827.1    0.00       0    78.6
 209    1:50   60.6    27    1.4   161      4.3   827.1    0.00       0    78.5
 209    2:00   60.2    27    1.9   125      3.9   827.1    0.00       0    78.4
 209    2:10   59.9    28    3.8   104      6.4   827.2    0.00       0    78.3
 209    2:20   59.6    28    4.4   107      7.3   827.3    0.00       0    78.2
 209    2:30   59.3    28    4.3   107      7.0   827.3    0.00       0    78.1
 209    2:40   59.4    30    1.6   144      3.8   827.4    0.00       0    78.0
 209    2:50   59.1    30    2.6   113      5.1   827.5    0.00       0    77.9
 209    3:00   58.8    30    1.9   115      4.1   827.6    0.00       0    77.8
 209    3:10   58.4    33    0.8   135      2.0   827.7    0.00       0    77.7
 209    3:20   58.0    33    1.5   133      4.2   827.8    0.00       0    77.6
 209    3:30   58.2    32    1.3   125      3.1   828.0    0.00       0    77.5
 209    3:40   57.5    35    0.8   171      2.3   828.2    0.00       0    77.3
 209    3:50   57.1    34    1.5   112      3.6   828.4    0.00       0    77.2
 209    4:00   57.3    33    2.7   104      5.0   828.5    0.00       0    77.1
 209    4:10   57.2    33    3.2    98      5.8   828.7    0.00       0    77.0
 209    4:20   56.9    34    2.8    99      4.6   828.8    0.00       0    76.9
 209    4:30   56.7    35    2.5   108      4.4   828.8    0.00       0    76.7
 209    4:40   56.2    37    1.3   118      3.1   829.0    0.00       0    76.6
 209    4:50   56.2    36    1.9   130      4.2   829.1    0.00       0    76.5
 209    5:00   56.1    38    1.0   147      2.5   829.3    0.00       0    76.4
 209    5:10   55.3    40    1.0   176      1.6   829.4    0.00       0    76.3
 209    5:20   55.3    38    2.0   113      4.2   829.6    0.00       0    76.2
 209    5:30   55.9    37    2.4   128      4.4   829.7    0.00       0    76.1
 209    5:40   55.8    38    2.2   119      4.6   829.8    0.00       5    76.0
 209    5:50   55.6    38    2.1   140      4.5   830.0    0.00       7    76.0
 209    6:00   54.9    41    1.3   165      3.2   830.1    0.00      13    75.8
 209    6:10   54.4    44    1.2   193      2.3   830.2    0.00      16    75.8
 209    6:20   54.1    46    0.3   176      1.3   830.4    0.00      48    75.7
 209    6:30   57.7    39    0.3   155      0.9   830.4    0.00     119    75.6
 209    6:40   60.7    35    0.3   122      1.5   830.4    0.00     151    75.6
 209    6:50   61.4    34    0.9   199      1.7   830.6    0.00     183    75.5
 209    7:00   61.4    34    1.2   203      1.8   830.6    0.00     215    75.4
 209    7:10   62.4    33    1.1   206      2.6   830.7    0.00     248    75.3
 209    7:20   62.4    34    0.9   292      2.6   830.7    0.00     282    75.3
 209    7:30   62.8    35    0.5   355      1.6   830.8    0.00     316    75.3
 209    7:40   62.3    35    1.8   288      4.1   830.9    0.00     346    75.2
 209    7:50   60.4    37    2.4   305      4.3   830.9    0.00     379    75.2
 209    8:00   62.0    35    1.3   272      4.5   830.9    0.00     413    75.3
 209    8:10   62.1    35    1.8   304      3.5   830.9    0.00     446    75.3
 209    8:20   62.9    34    1.2   346      4.0   830.9    0.00     478    75.3
 209    8:30   64.5    32    2.0   229      4.8   830.5    0.00     511    75.4
 209    8:40   64.6    33    1.5   287      3.4   830.7    0.00     544    75.5
 209    8:50   65.4    32    2.0   328      5.5   830.5    0.00     575    75.6
 209    9:00   65.0    31    1.2   316      3.7   830.5    0.00     606    75.7
 209    9:10   65.8    31    2.2   319      8.5   830.1    0.00     635    75.8
 209    9:20   66.6    28    1.3   168      5.3   830.3    0.00     662    75.9
 209    9:30   68.3    29    1.4   314      4.6   830.1    0.00     690    76.0
 209    9:40   66.8    31    2.7   306      6.2   830.7    0.00     690    76.1
 209    9:50   66.7    31    2.3   287      6.1   830.3    0.00     693    76.2
 209   10:00   67.5    30    2.6    73      5.3   830.5    0.00     767    76.3
 209   10:10   67.9    30    2.4     3      4.6   830.2    0.00     794    76.4
 209   10:20   68.9    30    1.8   304      4.7   831.0    0.00     789    76.4
 209   10:30   69.7    30    3.0    23      6.6   831.1    0.00     734    76.5
 209   10:40   69.4    30    2.9    24      7.7   831.2    0.00     858    76.5
 209   10:50   71.0    28    2.2   303      7.7   830.4    0.00     869    76.6
 209   11:00   70.6    30    3.2   353      7.7   829.8    0.00     892    76.6
 209   11:10   71.9    28    2.7   319      6.4   829.9    0.00     902    76.7
 209   11:20   72.6    26    2.4   175      4.9   829.5    0.00     912    76.7

Return to Cedar City, Utah graphs page.


Western Regional Climate Center,wrcc@dri.edu